Glasco, KS

11:36 PM CDT on May 26, 2015 (GMT -0500)
Simpson KS | | Change Station
CLOSE
Current Station
Personal Weather Station
Location: Beloit, KS
Elevation: 1342 ft
Nearby Weather Stations

Elev 1342 ft 39.39 °N, 97.94 °W | Updated 1 minute ago

Partly Cloudy
Partly Cloudy
55.8 °F
Feels Like 55.8 °F
N
2.7
Wind Variable Wind from WNW

Today
High -- | Low -- °F
--% Chance of Precip.
Yesterday
High -- | Low -- °F
Precip. -- in
6:09 AM 8:47 PM
Waxing Gibbous, 64% visible
Pressure 29.98 in
Visibility 10.0 miles
Clouds Clear
Dew Point 55 °F
Humidity 98%
Rainfall 0.00 in
Snow Depth Not available.
UV 0 out of 12
Pollen 7.70 out of 12
Air Quality Not available.
Flu Activity No Activity
METAR KCNK 270355Z AUTO 25005KT 10SM CLR 16/12 A3000 RMK AO2 SLP150 T01610117

More Conditions Fewer Conditions

Pressure 29.98 in
Visibility 10.0 miles
Clouds Clear
Dew Point 55 °F
Humidity 98%
Rainfall 0.00 in
Snow Depth Not available.
UV 0 out of 12
Pollen 7.70 out of 12
Air Quality Not available.
Flu Activity No Activity
METAR KCNK 270355Z AUTO 25005KT 10SM CLR 16/12 A3000 RMK AO2 SLP150 T01610117

More Conditions Fewer Conditions

10-Day Weather Forecast

Almanac

Astronomy

May. 26, 2015 Rise Set
Actual Time
Civil Twilight
Nautical Twilight
Astronomical Twilight
Moon
Length of Visible Light
Length of Day
Tomorrow will be .
, % of the Moon is Illuminated

Today's Extremes

State Highs State Lows

Community

WunderPhotos

Upload Photos

1,824,615 photos uploaded!

WunderBlogs® & News

Nearby

Air Quality

  Air Quality AQ Index Pollutant
Not available.

Snow Depth

Station Depth Elevation

Earthquake Activity

City Distance Mag. Time & Date
Minimum magnitude displayed is 2.5.

Coastal Water Temperatures

Place Temperature

Stations

Nearby Weather Stations

Station Location Temp. Windchill Dew Point Humidity Wind Precip. Elev Updated Type